createdAt,value
2019-02-28T00:00:41.432Z,-84
2019-02-28T00:03:13.488Z,-85
2019-02-28T00:05:46.072Z,-84
2019-02-28T00:08:18.561Z,-84
2019-02-28T00:10:50.720Z,-84
2019-02-28T00:13:22.945Z,-85
2019-02-28T00:15:54.867Z,-84
2019-02-28T00:18:26.692Z,-84
2019-02-28T00:20:58.950Z,-84
2019-02-28T00:23:31.167Z,-84
2019-02-28T00:26:03.307Z,-84
2019-02-28T00:28:35.421Z,-84
2019-02-28T00:31:07.321Z,-83
2019-02-28T00:33:39.515Z,-84
2019-02-28T00:36:11.664Z,-84
2019-02-28T00:38:43.767Z,-84
2019-02-28T00:41:16.288Z,-85
2019-02-28T00:43:48.526Z,-84
2019-02-28T00:46:20.811Z,-85
2019-02-28T00:48:54.104Z,-84
2019-02-28T00:51:29.762Z,-84
2019-02-28T00:54:00.329Z,-84
2019-02-28T00:56:32.183Z,-84
2019-02-28T00:59:04.313Z,-85
2019-02-28T01:01:36.447Z,-85
2019-02-28T01:04:08.285Z,-85
2019-02-28T01:06:41.718Z,-85
2019-02-28T01:09:14.405Z,-85
2019-02-28T01:11:46.269Z,-85
2019-02-28T01:14:18.142Z,-85
2019-02-28T01:16:50.229Z,-85
2019-02-28T01:19:23.848Z,-85
2019-02-28T01:21:56.290Z,-85
2019-02-28T01:24:28.155Z,-85
2019-02-28T01:26:59.976Z,-86
2019-02-28T01:29:32.931Z,-85
2019-02-28T01:32:05.365Z,-85
2019-02-28T01:34:37.225Z,-85
2019-02-28T01:37:09.166Z,-85
2019-02-28T01:39:41.021Z,-85
2019-02-28T01:42:13.152Z,-85
2019-02-28T01:44:45.286Z,-85
2019-02-28T01:47:19.882Z,-84
2019-02-28T01:49:51.694Z,-85
2019-02-28T01:52:24.240Z,-85
2019-02-28T01:54:58.578Z,-85
2019-02-28T01:57:30.616Z,-85
2019-02-28T02:00:03.051Z,-85
2019-02-28T02:02:38.009Z,-85
2019-02-28T02:05:09.235Z,-85
2019-02-28T02:07:42.352Z,-85
2019-02-28T02:10:21.316Z,-85
2019-02-28T02:12:53.615Z,-84
2019-02-28T02:15:25.994Z,-85
2019-02-28T02:17:57.931Z,-84
2019-02-28T02:20:30.482Z,-84
2019-02-28T02:23:03.040Z,-84
2019-02-28T02:25:37.613Z,-85
2019-02-28T02:28:08.678Z,-85
2019-02-28T02:30:40.653Z,-85
2019-02-28T02:33:14.447Z,-84
2019-02-28T02:35:46.060Z,-85
2019-02-28T02:38:18.001Z,-85
2019-02-28T02:40:49.985Z,-85
2019-02-28T02:43:23.035Z,-84
2019-02-28T02:45:55.675Z,-84
2019-02-28T02:48:27.575Z,-84
2019-02-28T02:50:59.824Z,-85
2019-02-28T02:53:31.664Z,-85
2019-02-28T02:56:04.920Z,-85
2019-02-28T02:58:36.920Z,-85
2019-02-28T03:01:08.785Z,-85
2019-02-28T03:03:44.284Z,-84
2019-02-28T03:06:14.525Z,-84
2019-02-28T03:08:46.399Z,-85
2019-02-28T03:11:18.288Z,-85
2019-02-28T03:13:50.181Z,-85
2019-02-28T03:16:22.505Z,-85
2019-02-28T03:18:58.209Z,-85
2019-02-28T03:21:29.636Z,-85
2019-02-28T03:24:01.586Z,-85
2019-02-28T03:26:33.725Z,-85
2019-02-28T03:29:07.963Z,-85
2019-02-28T03:31:39.395Z,-84
2019-02-28T03:34:14.066Z,-85
2019-02-28T03:36:55.454Z,-85
2019-02-28T03:39:24.257Z,-85
2019-02-28T03:41:53.234Z,-85
2019-02-28T03:44:26.498Z,-85
2019-02-28T03:46:58.684Z,-85
2019-02-28T03:49:31.077Z,-85
2019-02-28T03:52:06.612Z,-85
2019-02-28T03:54:36.477Z,-85
2019-02-28T03:57:08.357Z,-85
2019-02-28T03:59:40.296Z,-85
2019-02-28T04:02:12.517Z,-85
2019-02-28T04:04:50.123Z,-85
2019-02-28T04:07:18.972Z,-84
2019-02-28T04:09:51.107Z,-84
2019-02-28T04:12:22.971Z,-84
2019-02-28T04:14:55.202Z,-85
2019-02-28T04:17:30.621Z,-84
2019-02-28T04:20:00.996Z,-85
2019-02-28T04:22:33.272Z,-85
2019-02-28T04:25:05.345Z,-85
2019-02-28T04:27:40.244Z,-84
2019-02-28T04:30:10.917Z,-85
2019-02-28T04:32:45.009Z,-85
2019-02-28T04:35:17.256Z,-84
2019-02-28T04:37:49.260Z,-85
2019-02-28T04:40:21.092Z,-84
2019-02-28T04:42:53.078Z,-85
2019-02-28T04:45:26.245Z,-85
2019-02-28T04:47:59.159Z,-85
2019-02-28T04:50:32.217Z,-85
2019-02-28T04:53:04.491Z,-84
2019-02-28T04:55:37.997Z,-86
2019-02-28T04:58:10.386Z,-86
2019-02-28T05:00:42.609Z,-86
2019-02-28T05:03:14.787Z,-87
2019-02-28T05:05:47.663Z,-85
2019-02-28T05:08:19.618Z,-85
2019-02-28T05:10:55.664Z,-85
2019-02-28T05:13:25.002Z,-85
2019-02-28T05:15:57.031Z,-84
2019-02-28T05:18:29.565Z,-85
2019-02-28T05:21:02.300Z,-85
2019-02-28T05:23:35.989Z,-85
2019-02-28T05:26:08.247Z,-84
2019-02-28T05:28:41.220Z,-85
2019-02-28T05:31:13.537Z,-85
2019-02-28T05:33:45.703Z,-84
2019-02-28T05:36:17.964Z,-85
2019-02-28T05:38:49.861Z,-85
2019-02-28T05:41:21.807Z,-85
2019-02-28T05:43:54.386Z,-84
2019-02-28T05:46:27.047Z,-86
2019-02-28T05:48:59.288Z,-86
2019-02-28T05:51:31.694Z,-85
2019-02-28T05:54:03.686Z,-85
2019-02-28T05:56:35.890Z,-85
2019-02-28T05:59:07.771Z,-84
2019-02-28T06:01:39.623Z,-85
2019-02-28T06:04:11.774Z,-84
2019-02-28T06:06:43.894Z,-84
2019-02-28T06:09:15.913Z,-84
2019-02-28T06:11:48.495Z,-84
2019-02-28T06:14:26.613Z,-85
2019-02-28T06:16:54.170Z,-84
2019-02-28T06:19:26.192Z,-85
2019-02-28T06:21:59.457Z,-87
2019-02-28T06:24:32.113Z,-84
2019-02-28T06:27:06.586Z,-86
2019-02-28T06:29:37.697Z,-86
2019-02-28T06:32:09.637Z,-87
2019-02-28T06:34:42.408Z,-85
2019-02-28T06:37:14.912Z,-85
2019-02-28T06:39:46.777Z,-85
2019-02-28T06:42:19.354Z,-85
2019-02-28T06:44:51.621Z,-85
2019-02-28T06:47:23.757Z,-85
2019-02-28T06:49:56.000Z,-86
2019-02-28T06:52:27.960Z,-87
2019-02-28T06:54:59.858Z,-87
2019-02-28T06:57:33.073Z,-87
2019-02-28T07:00:06.724Z,-87
2019-02-28T07:02:38.946Z,-87
2019-02-28T07:05:10.927Z,-86
2019-02-28T07:07:45.649Z,-87
2019-02-28T07:10:16.980Z,-86
2019-02-28T07:12:49.104Z,-86
2019-02-28T07:15:24.721Z,-85
2019-02-28T07:17:55.311Z,-86
2019-02-28T07:20:27.224Z,-86
2019-02-28T07:22:59.083Z,-88
2019-02-28T07:25:30.944Z,-86
2019-02-28T07:28:03.036Z,-88
2019-02-28T07:30:35.024Z,-89
2019-02-28T07:33:10.505Z,-87
2019-02-28T07:35:44.715Z,-87
2019-02-28T07:38:17.216Z,-89
2019-02-28T07:44:07.302Z,-90
2019-02-28T07:46:42.607Z,-91
2019-02-28T07:49:12.992Z,-88
2019-02-28T07:51:45.145Z,-92
2019-02-28T07:54:17.370Z,-89
2019-02-28T07:56:49.262Z,-90
2019-02-28T07:59:21.112Z,-89
2019-02-28T08:01:53.014Z,-91
2019-02-28T08:04:25.136Z,-89
2019-02-28T08:06:57.565Z,-91
2019-02-28T08:09:33.299Z,-89
2019-02-28T08:12:06.616Z,-88
2019-02-28T08:14:38.594Z,-90
2019-02-28T08:17:10.615Z,-90
2019-02-28T08:19:42.480Z,-90
2019-02-28T08:22:14.756Z,-90
2019-02-28T08:24:46.910Z,-90
2019-02-28T08:27:19.494Z,-91
2019-02-28T08:29:51.609Z,-90
2019-02-28T08:32:23.517Z,-91
2019-02-28T08:34:58.777Z,-90
2019-02-28T08:37:29.446Z,-91
2019-02-28T08:40:01.698Z,-88
2019-02-28T08:42:38.700Z,-90
2019-02-28T08:45:10.814Z,-91
2019-02-28T08:47:43.555Z,-91
2019-02-28T08:50:20.543Z,-90
2019-02-28T08:52:53.032Z,-91
2019-02-28T08:55:28.609Z,-90
2019-02-28T08:58:05.021Z,-91
2019-02-28T09:00:33.283Z,-89
2019-02-28T09:03:06.202Z,-90
2019-02-28T09:05:38.981Z,-90
2019-02-28T09:08:10.965Z,-90
2019-02-28T09:10:43.753Z,-91
2019-02-28T09:13:16.689Z,-90
2019-02-28T09:15:50.608Z,-89
2019-02-28T09:18:22.255Z,-90
2019-02-28T09:20:54.099Z,-90
2019-02-28T09:23:25.978Z,-91
2019-02-28T09:25:57.945Z,-91
2019-02-28T09:28:29.933Z,-90
2019-02-28T09:31:05.053Z,-90
2019-02-28T09:33:35.482Z,-90
2019-02-28T09:36:08.008Z,-90
2019-02-28T09:38:42.288Z,-90
2019-02-28T09:41:14.452Z,-90
2019-02-28T09:43:46.983Z,-88
2019-02-28T09:46:19.444Z,-90
2019-02-28T09:48:51.697Z,-90
2019-02-28T09:51:23.666Z,-90
2019-02-28T09:53:55.906Z,-89
2019-02-28T09:56:27.862Z,-89
2019-02-28T09:59:03.071Z,-90
2019-02-28T10:01:34.168Z,-90
2019-02-28T10:04:06.176Z,-89
2019-02-28T10:06:38.021Z,-89
2019-02-28T10:09:10.035Z,-90
2019-02-28T10:11:42.308Z,-89
2019-02-28T10:14:14.819Z,-90
2019-02-28T10:16:49.643Z,-90
2019-02-28T10:19:20.553Z,-90
2019-02-28T10:21:52.512Z,-90
2019-02-28T10:24:24.945Z,-90
2019-02-28T10:26:56.658Z,-90
2019-02-28T10:29:28.833Z,-89
2019-02-28T10:32:00.981Z,-91
2019-02-28T10:34:35.338Z,-90
2019-02-28T10:37:07.363Z,-90
2019-02-28T10:39:40.240Z,-90
2019-02-28T10:42:12.788Z,-90
2019-02-28T10:44:44.956Z,-89
2019-02-28T10:47:17.262Z,-89
2019-02-28T10:49:49.146Z,-89
2019-02-28T10:52:23.446Z,-89
2019-02-28T10:54:55.283Z,-88
2019-02-28T10:57:27.611Z,-90
2019-02-28T10:59:59.494Z,-89
2019-02-28T11:02:31.410Z,-89
2019-02-28T11:05:03.284Z,-88
2019-02-28T11:07:37.731Z,-89
2019-02-28T11:10:09.542Z,-89
2019-02-28T11:12:41.475Z,-89
2019-02-28T11:15:13.858Z,-89
2019-02-28T11:17:46.620Z,-89
2019-02-28T11:20:22.134Z,-88
2019-02-28T11:22:52.644Z,-91
2019-02-28T11:25:26.890Z,-89
2019-02-28T11:27:59.212Z,-88
2019-02-28T11:30:31.132Z,-88
2019-02-28T11:33:04.695Z,-89
2019-02-28T11:35:37.665Z,-90
2019-02-28T11:38:09.635Z,-91
2019-02-28T11:40:43.707Z,-90
2019-02-28T11:43:15.447Z,-91
2019-02-28T11:45:48.016Z,-90
2019-02-28T11:48:20.593Z,-89
2019-02-28T11:50:52.922Z,-89
2019-02-28T11:53:25.035Z,-90
2019-02-28T11:55:57.322Z,-90
2019-02-28T11:58:32.331Z,-89
2019-02-28T12:01:09.974Z,-90
2019-02-28T12:03:38.859Z,-89
2019-02-28T12:06:10.936Z,-91
2019-02-28T12:08:45.827Z,-90
2019-02-28T12:11:18.797Z,-89
2019-02-28T12:13:51.604Z,-89
2019-02-28T12:16:25.230Z,-89
2019-02-28T12:18:57.761Z,-89
2019-02-28T12:21:30.182Z,-90
2019-02-28T12:24:02.318Z,-89
2019-02-28T12:26:36.640Z,-89
2019-02-28T12:29:12.808Z,-90
2019-02-28T12:31:43.796Z,-90
2019-02-28T12:34:18.734Z,-89
2019-02-28T12:36:51.002Z,-89
2019-02-28T12:39:23.746Z,-89
2019-02-28T12:41:59.525Z,-90
2019-02-28T12:44:31.292Z,-90
2019-02-28T12:47:03.429Z,-90
2019-02-28T12:49:37.079Z,-91
2019-02-28T12:52:11.230Z,-90
2019-02-28T12:54:42.849Z,-91
2019-02-28T12:57:15.435Z,-90
2019-02-28T12:59:47.698Z,-89
2019-02-28T13:02:19.872Z,-90
2019-02-28T13:04:51.818Z,-89
2019-02-28T13:07:24.214Z,-91
2019-02-28T13:09:56.798Z,-89
2019-02-28T13:12:28.700Z,-90
2019-02-28T13:15:00.847Z,-89
2019-02-28T13:17:33.398Z,-90
2019-02-28T13:20:07.556Z,-90
2019-02-28T13:22:39.735Z,-89
2019-02-28T13:25:11.932Z,-90
2019-02-28T13:27:45.235Z,-89
2019-02-28T13:30:23.708Z,-91
2019-02-28T13:32:56.080Z,-89
2019-02-28T13:35:30.628Z,-90
2019-02-28T13:38:03.623Z,-90
2019-02-28T13:40:36.712Z,-89
2019-02-28T13:43:08.892Z,-90
2019-02-28T13:45:41.494Z,-90
2019-02-28T13:48:13.699Z,-90
2019-02-28T13:50:45.799Z,-90
2019-02-28T13:53:18.943Z,-90
2019-02-28T13:55:52.766Z,-89
2019-02-28T13:58:25.641Z,-90
2019-02-28T14:00:57.755Z,-90
2019-02-28T14:03:30.094Z,-89
2019-02-28T14:06:02.272Z,-90
2019-02-28T14:08:34.475Z,-90
2019-02-28T14:11:10.159Z,-90
2019-02-28T14:13:40.234Z,-90
2019-02-28T14:16:12.964Z,-90
2019-02-28T14:18:45.484Z,-89
2019-02-28T14:21:19.111Z,-89
2019-02-28T14:23:52.417Z,-90
2019-02-28T14:26:25.141Z,-88
2019-02-28T14:28:57.018Z,-89
2019-02-28T14:31:29.558Z,-90
2019-02-28T14:34:02.745Z,-89
2019-02-28T14:36:35.025Z,-90
2019-02-28T14:39:09.576Z,-90
2019-02-28T14:41:41.423Z,-89
2019-02-28T14:44:13.432Z,-89
2019-02-28T14:46:45.270Z,-90
2019-02-28T14:49:17.629Z,-90
2019-02-28T14:51:50.098Z,-90
2019-02-28T14:54:24.617Z,-88
2019-02-28T14:56:55.546Z,-90
2019-02-28T14:59:28.568Z,-90
2019-02-28T15:02:01.426Z,-91
2019-02-28T15:04:33.301Z,-89
2019-02-28T15:07:05.293Z,-90
2019-02-28T15:09:37.143Z,-90
2019-02-28T15:12:09.650Z,-90
2019-02-28T15:14:43.209Z,-90
2019-02-28T15:17:17.606Z,-90
2019-02-28T15:19:49.443Z,-91
2019-02-28T15:22:21.357Z,-91
2019-02-28T15:24:53.440Z,-89
2019-02-28T15:27:25.892Z,-90
2019-02-28T15:29:58.911Z,-90
2019-02-28T15:32:32.251Z,-91
2019-02-28T15:35:04.572Z,-90
2019-02-28T15:37:36.721Z,-90
2019-02-28T15:40:11.565Z,-90
2019-02-28T15:42:44.123Z,-90
2019-02-28T15:45:16.517Z,-90
2019-02-28T15:47:51.152Z,-90
2019-02-28T15:50:23.518Z,-90
2019-02-28T15:52:55.873Z,-89
2019-02-28T15:55:28.382Z,-88
2019-02-28T15:58:02.779Z,-89
2019-02-28T16:00:34.801Z,-90
2019-02-28T16:03:06.917Z,-89
2019-02-28T16:05:43.965Z,-89
2019-02-28T16:08:12.899Z,-89
2019-02-28T16:10:52.831Z,-90
2019-02-28T16:13:22.648Z,-89
2019-02-28T16:15:55.539Z,-89
2019-02-28T16:18:27.478Z,-87
2019-02-28T16:20:59.497Z,-86
2019-02-28T16:23:31.975Z,-86
2019-02-28T16:26:04.528Z,-88
2019-02-28T16:28:36.405Z,-87
2019-02-28T16:31:08.247Z,-86
2019-02-28T16:33:43.494Z,-86
2019-02-28T16:36:15.987Z,-89
2019-02-28T16:38:48.634Z,-88
2019-02-28T16:41:21.138Z,-88
2019-02-28T16:43:55.547Z,-88
2019-02-28T16:46:27.315Z,-88
2019-02-28T16:48:59.697Z,-87
2019-02-28T16:51:32.265Z,-87
2019-02-28T16:54:05.189Z,-87
2019-02-28T16:56:38.708Z,-87
2019-02-28T16:59:13.336Z,-87
2019-02-28T17:01:46.071Z,-85
2019-02-28T17:04:18.657Z,-85
2019-02-28T17:06:55.573Z,-88
2019-02-28T17:09:43.565Z,-88
2019-02-28T17:12:43.108Z,-87
2019-02-28T17:15:24.112Z,-87
2019-02-28T17:18:00.470Z,-86
2019-02-28T17:20:32.469Z,-86
2019-02-28T17:23:04.327Z,-86
2019-02-28T17:25:36.487Z,-86
2019-02-28T17:28:16.338Z,-86
2019-02-28T17:31:12.708Z,-86
2019-02-28T17:33:46.837Z,-86
2019-02-28T17:36:20.607Z,-86
2019-02-28T17:38:53.310Z,-86
2019-02-28T17:41:25.623Z,-86
2019-02-28T17:44:41.797Z,-86
2019-02-28T17:48:13.588Z,-85
2019-02-28T17:51:14.967Z,-86
2019-02-28T17:54:29.175Z,-86
2019-02-28T17:57:41.723Z,-86
2019-02-28T18:00:54.562Z,-85
2019-02-28T18:04:04.312Z,-85
2019-02-28T18:07:27.534Z,-86
2019-02-28T18:11:01.379Z,-85
2019-02-28T18:14:27.788Z,-85
2019-02-28T18:18:15.266Z,-86
2019-02-28T18:21:29.267Z,-88
2019-02-28T18:24:44.736Z,-86
2019-02-28T18:28:27.429Z,-86
2019-02-28T18:31:21.737Z,-85
2019-02-28T18:33:57.603Z,-85
2019-02-28T18:36:31.726Z,-85
2019-02-28T18:39:04.892Z,-85
2019-02-28T18:41:38.869Z,-85
2019-02-28T18:44:12.019Z,-84
2019-02-28T18:46:44.217Z,-84
2019-02-28T18:49:16.095Z,-87
2019-02-28T18:51:49.096Z,-87
2019-02-28T18:54:21.411Z,-88
2019-02-28T18:56:53.878Z,-88
2019-02-28T18:59:25.863Z,-88
2019-02-28T19:01:58.368Z,-89
2019-02-28T19:04:30.216Z,-88
2019-02-28T19:07:02.856Z,-88
2019-02-28T19:09:35.360Z,-88
2019-02-28T19:12:07.357Z,-88
2019-02-28T19:14:39.288Z,-88
2019-02-28T19:17:11.543Z,-87
2019-02-28T19:19:43.789Z,-88
2019-02-28T19:22:15.695Z,-88
2019-02-28T19:24:48.586Z,-88
2019-02-28T19:27:21.476Z,-88
2019-02-28T19:29:53.447Z,-88
2019-02-28T19:32:25.621Z,-89
2019-02-28T19:34:57.797Z,-88
2019-02-28T19:37:30.202Z,-87
2019-02-28T19:40:02.351Z,-87
2019-02-28T19:42:36.492Z,-87
2019-02-28T19:45:14.697Z,-88
2019-02-28T19:47:47.780Z,-88
2019-02-28T19:50:19.663Z,-88
2019-02-28T19:52:54.098Z,-88
2019-02-28T19:55:26.930Z,-89
2019-02-28T19:58:00.226Z,-84
2019-02-28T20:00:34.509Z,-85
2019-02-28T20:03:06.453Z,-85
2019-02-28T20:05:38.927Z,-84
2019-02-28T20:08:11.491Z,-83
2019-02-28T20:10:43.641Z,-84
2019-02-28T20:13:16.783Z,-85
2019-02-28T20:15:48.818Z,-84
2019-02-28T20:18:22.066Z,-84
2019-02-28T20:20:54.048Z,-85
2019-02-28T20:23:26.528Z,-83
2019-02-28T20:25:59.032Z,-83
2019-02-28T20:28:30.984Z,-83
2019-02-28T20:31:03.250Z,-84
2019-02-28T20:33:34.802Z,-85
2019-02-28T20:36:06.981Z,-84
2019-02-28T20:38:39.184Z,-83
2019-02-28T20:41:11.381Z,-86
2019-02-28T20:43:43.290Z,-83
2019-02-28T20:46:15.608Z,-84
2019-02-28T20:48:47.868Z,-85
2019-02-28T20:51:19.984Z,-85
2019-02-28T20:53:51.963Z,-85
2019-02-28T20:56:24.233Z,-85
2019-02-28T20:58:57.071Z,-85
2019-02-28T21:01:29.709Z,-85
2019-02-28T21:04:02.025Z,-87
2019-02-28T21:06:34.175Z,-85
2019-02-28T21:09:08.516Z,-84
2019-02-28T21:11:40.688Z,-86
2019-02-28T21:14:12.871Z,-86
2019-02-28T21:16:48.179Z,-85
2019-02-28T21:19:20.722Z,-85
2019-02-28T21:21:54.131Z,-85
2019-02-28T21:24:26.733Z,-85
2019-02-28T21:27:00.091Z,-85
2019-02-28T21:29:33.661Z,-84
2019-02-28T21:32:05.965Z,-85
2019-02-28T21:34:41.758Z,-85
2019-02-28T21:37:18.960Z,-85
2019-02-28T21:39:53.121Z,-84
2019-02-28T21:42:25.358Z,-85
2019-02-28T21:45:00.850Z,-85
2019-02-28T21:47:36.104Z,-85
2019-02-28T21:50:10.805Z,-84
2019-02-28T21:52:44.909Z,-87
2019-02-28T21:55:17.703Z,-87
2019-02-28T21:57:49.642Z,-87
2019-02-28T22:00:23.890Z,-87
2019-02-28T22:02:55.738Z,-84
2019-02-28T22:05:28.130Z,-85
2019-02-28T22:08:00.094Z,-85
2019-02-28T22:10:32.017Z,-85
2019-02-28T22:13:04.143Z,-85
2019-02-28T22:15:36.442Z,-85
2019-02-28T22:18:08.686Z,-86
2019-02-28T22:20:40.720Z,-85
2019-02-28T22:23:12.676Z,-85
2019-02-28T22:25:45.289Z,-84
2019-02-28T22:28:17.263Z,-85
2019-02-28T22:31:08.369Z,-85
2019-02-28T22:33:46.844Z,-86
2019-02-28T22:36:22.823Z,-85
2019-02-28T22:38:54.672Z,-84
2019-02-28T22:41:26.889Z,-85
2019-02-28T22:43:59.057Z,-85
2019-02-28T22:46:30.937Z,-87
2019-02-28T22:49:03.309Z,-86
2019-02-28T22:51:35.321Z,-86
2019-02-28T22:54:07.162Z,-86
2019-02-28T22:56:39.496Z,-86
2019-02-28T22:59:12.361Z,-86
2019-02-28T23:01:44.766Z,-86
2019-02-28T23:04:19.481Z,-86
2019-02-28T23:06:51.760Z,-85
2019-02-28T23:09:23.646Z,-86
2019-02-28T23:11:56.587Z,-84
2019-02-28T23:14:28.385Z,-84
2019-02-28T23:17:00.960Z,-87
2019-02-28T23:19:32.829Z,-83
2019-02-28T23:22:04.847Z,-84
2019-02-28T23:24:37.654Z,-85
2019-02-28T23:27:18.411Z,-85
2019-02-28T23:30:47.175Z,-85
2019-02-28T23:33:20.290Z,-85
2019-02-28T23:35:53.277Z,-84
2019-02-28T23:38:28.957Z,-85
2019-02-28T23:41:07.203Z,-85
2019-02-28T23:43:39.756Z,-85
2019-02-28T23:46:11.910Z,-85
2019-02-28T23:48:44.297Z,-85
2019-02-28T23:51:16.155Z,-85
2019-02-28T23:53:48.044Z,-85
2019-02-28T23:56:21.118Z,-85
2019-02-28T23:58:53.111Z,-85
